sensor_id;sensor_type;location;lat;lon;timestamp;pressure;altitude;pressure_sealevel;temperature;humidity
7052;BME280;3567;52.444;13.556;2023-04-02T00:02:24;100808.28;;;3.00;100.00
7052;BME280;3567;52.444;13.556;2023-04-02T00:07:41;100818.84;;;3.00;100.00
7052;BME280;3567;52.444;13.556;2023-04-02T00:15:33;100830.59;;;2.97;100.00
7052;BME280;3567;52.444;13.556;2023-04-02T00:17:59;100826.94;;;2.98;100.00
7052;BME280;3567;52.444;13.556;2023-04-02T00:20:27;100826.78;;;3.00;100.00
7052;BME280;3567;52.444;13.556;2023-04-02T00:22:55;100838.53;;;2.97;100.00
7052;BME280;3567;52.444;13.556;2023-04-02T00:25:21;100841.19;;;2.97;100.00
7052;BME280;3567;52.444;13.556;2023-04-02T00:27:50;100836.06;;;2.96;100.00
7052;BME280;3567;52.444;13.556;2023-04-02T00:30:16;100839.34;;;2.98;100.00
7052;BME280;3567;52.444;13.556;2023-04-02T00:32:41;100848.97;;;2.99;100.00
7052;BME280;3567;52.444;13.556;2023-04-02T00:35:15;100849.94;;;2.98;100.00
7052;BME280;3567;52.444;13.556;2023-04-02T00:37:43;100846.66;;;2.96;100.00
7052;BME280;3567;52.444;13.556;2023-04-02T00:40:25;100857.25;;;2.96;100.00
7052;BME280;3567;52.444;13.556;2023-04-02T00:42:53;100867.19;;;2.94;100.00
7052;BME280;3567;52.444;13.556;2023-04-02T00:45:26;100866.19;;;2.95;100.00
7052;BME280;3567;52.444;13.556;2023-04-02T00:47:59;100859.78;;;2.89;100.00
7052;BME280;3567;52.444;13.556;2023-04-02T00:50:40;100867.72;;;2.89;100.00
7052;BME280;3567;52.444;13.556;2023-04-02T00:53:12;100869.34;;;2.90;100.00
7052;BME280;3567;52.444;13.556;2023-04-02T00:55:40;100872.00;;;2.90;100.00
7052;BME280;3567;52.444;13.556;2023-04-02T00:58:26;100882.75;;;2.88;100.00
7052;BME280;3567;52.444;13.556;2023-04-02T01:00:54;100879.31;;;2.88;100.00
7052;BME280;3567;52.444;13.556;2023-04-02T01:06:01;100884.75;;;2.86;100.00
7052;BME280;3567;52.444;13.556;2023-04-02T01:08:39;100888.56;;;2.84;100.00
7052;BME280;3567;52.444;13.556;2023-04-02T01:23:28;100915.72;;;2.78;100.00
7052;BME280;3567;52.444;13.556;2023-04-02T01:25:57;100919.53;;;2.75;100.00
7052;BME280;3567;52.444;13.556;2023-04-02T01:28:41;100924.00;;;2.75;100.00
7052;BME280;3567;52.444;13.556;2023-04-02T01:31:09;100924.19;;;2.73;100.00
7052;BME280;3567;52.444;13.556;2023-04-02T01:33:35;100938.22;;;2.74;100.00
7052;BME280;3567;52.444;13.556;2023-04-02T01:38:53;100935.59;;;2.74;100.00
7052;BME280;3567;52.444;13.556;2023-04-02T01:41:29;100936.72;;;2.71;100.00
7052;BME280;3567;52.444;13.556;2023-04-02T01:44:02;100941.06;;;2.72;100.00
7052;BME280;3567;52.444;13.556;2023-04-02T01:46:33;100945.53;;;2.72;100.00
7052;BME280;3567;52.444;13.556;2023-04-02T01:49:02;100951.78;;;2.71;100.00
7052;BME280;3567;52.444;13.556;2023-04-02T01:51:33;100963.03;;;2.73;100.00
7052;BME280;3567;52.444;13.556;2023-04-02T01:54:02;100961.22;;;2.73;100.00
7052;BME280;3567;52.444;13.556;2023-04-02T01:56:28;100965.69;;;2.73;100.00
7052;BME280;3567;52.444;13.556;2023-04-02T01:58:56;100977.09;;;2.73;100.00
7052;BME280;3567;52.444;13.556;2023-04-02T02:01:26;100979.72;;;2.73;100.00
7052;BME280;3567;52.444;13.556;2023-04-02T02:03:55;100978.22;;;2.71;100.00
7052;BME280;3567;52.444;13.556;2023-04-02T02:06:21;100985.34;;;2.70;100.00
7052;BME280;3567;52.444;13.556;2023-04-02T02:08:52;100992.47;;;2.70;100.00
7052;BME280;3567;52.444;13.556;2023-04-02T02:11:22;100994.28;;;2.69;100.00
7052;BME280;3567;52.444;13.556;2023-04-02T02:13:59;101005.69;;;2.70;100.00
7052;BME280;3567;52.444;13.556;2023-04-02T02:16:28;101006.50;;;2.70;100.00
7052;BME280;3567;52.444;13.556;2023-04-02T02:18:56;101003.88;;;2.70;100.00
7052;BME280;3567;52.444;13.556;2023-04-02T02:21:39;101002.72;;;2.73;100.00
7052;BME280;3567;52.444;13.556;2023-04-02T02:24:28;101014.44;;;2.70;100.00
7052;BME280;3567;52.444;13.556;2023-04-02T02:32:26;101021.72;;;2.68;100.00
7052;BME280;3567;52.444;13.556;2023-04-02T02:35:05;101037.44;;;2.70;100.00
7052;BME280;3567;52.444;13.556;2023-04-02T02:37:39;101037.59;;;2.68;100.00
7052;BME280;3567;52.444;13.556;2023-04-02T02:40:11;101033.13;;;2.69;100.00
7052;BME280;3567;52.444;13.556;2023-04-02T02:42:45;101040.06;;;2.70;99.91
7052;BME280;3567;52.444;13.556;2023-04-02T02:45:17;101049.00;;;2.69;99.93
7052;BME280;3567;52.444;13.556;2023-04-02T02:47:45;101041.06;;;2.69;100.00
7052;BME280;3567;52.444;13.556;2023-04-02T02:50:18;101051.00;;;2.67;99.75
7052;BME280;3567;52.444;13.556;2023-04-02T02:52:49;101065.06;;;2.67;99.21
7052;BME280;3567;52.444;13.556;2023-04-02T02:55:17;101058.75;;;2.68;99.67
7052;BME280;3567;52.444;13.556;2023-04-02T02:57:51;101063.22;;;2.68;99.36
7052;BME280;3567;52.444;13.556;2023-04-02T03:00:18;101066.88;;;2.67;98.33
7052;BME280;3567;52.444;13.556;2023-04-02T03:02:45;101073.81;;;2.68;98.48
7052;BME280;3567;52.444;13.556;2023-04-02T03:05:20;101085.22;;;2.68;98.71
7052;BME280;3567;52.444;13.556;2023-04-02T03:07:48;101094.97;;;2.68;99.00
7052;BME280;3567;52.444;13.556;2023-04-02T03:10:31;101093.16;;;2.68;98.95
7052;BME280;3567;52.444;13.556;2023-04-02T03:13:20;101108.34;;;2.66;98.74
7052;BME280;3567;52.444;13.556;2023-04-02T03:18:33;101107.19;;;2.69;97.05
7052;BME280;3567;52.444;13.556;2023-04-02T03:21:10;101115.13;;;2.69;98.25
7052;BME280;3567;52.444;13.556;2023-04-02T03:23:44;101124.06;;;2.68;98.01
7052;BME280;3567;52.444;13.556;2023-04-02T03:26:31;101123.06;;;2.69;98.63
7052;BME280;3567;52.444;13.556;2023-04-02T03:29:10;101133.66;;;2.69;98.15
7052;BME280;3567;52.444;13.556;2023-04-02T03:31:40;101135.28;;;2.70;98.25
7052;BME280;3567;52.444;13.556;2023-04-02T03:34:14;101135.13;;;2.71;98.08
7052;BME280;3567;52.444;13.556;2023-04-02T03:36:51;101141.91;;;2.74;98.40
7052;BME280;3567;52.444;13.556;2023-04-02T03:39:35;101139.44;;;2.72;96.83
7052;BME280;3567;52.444;13.556;2023-04-02T03:42:25;101140.59;;;2.70;98.87
7052;BME280;3567;52.444;13.556;2023-04-02T03:45:22;101158.44;;;2.68;98.26
7052;BME280;3567;52.444;13.556;2023-04-02T03:47:56;101149.53;;;2.69;97.45
7052;BME280;3567;52.444;13.556;2023-04-02T03:53:11;101166.72;;;2.65;98.43
7052;BME280;3567;52.444;13.556;2023-04-02T03:55:37;101165.72;;;2.66;98.40
7052;BME280;3567;52.444;13.556;2023-04-02T03:58:17;101171.81;;;2.66;98.20
7052;BME280;3567;52.444;13.556;2023-04-02T04:00:52;101179.94;;;2.65;98.07
7052;BME280;3567;52.444;13.556;2023-04-02T04:03:35;101185.41;;;2.63;97.19
7052;BME280;3567;52.444;13.556;2023-04-02T04:08:41;101194.47;;;2.60;97.16
7052;BME280;3567;52.444;13.556;2023-04-02T04:11:13;101198.94;;;2.60;98.07
7052;BME280;3567;52.444;13.556;2023-04-02T04:13:48;101202.41;;;2.60;97.52
7052;BME280;3567;52.444;13.556;2023-04-02T04:16:25;101212.84;;;2.62;98.54
7052;BME280;3567;52.444;13.556;2023-04-02T04:18:59;101216.13;;;2.64;97.69
7052;BME280;3567;52.444;13.556;2023-04-02T04:21:28;101232.84;;;2.65;96.89
7052;BME280;3567;52.444;13.556;2023-04-02T04:24:05;101233.31;;;2.60;96.25
7052;BME280;3567;52.444;13.556;2023-04-02T04:26:49;101224.56;;;2.59;97.22
7052;BME280;3567;52.444;13.556;2023-04-02T04:30:06;101234.16;;;2.60;97.37
7052;BME280;3567;52.444;13.556;2023-04-02T04:32:23;101239.44;;;2.60;97.38
7052;BME280;3567;52.444;13.556;2023-04-02T04:34:55;101241.75;;;2.63;97.80
7052;BME280;3567;52.444;13.556;2023-04-02T04:37:25;101248.69;;;2.65;97.06
7052;BME280;3567;52.444;13.556;2023-04-02T04:39:56;101253.16;;;2.64;97.22
7052;BME280;3567;52.444;13.556;2023-04-02T04:42:27;101254.00;;;2.65;97.24
7052;BME280;3567;52.444;13.556;2023-04-02T04:44:59;101267.03;;;2.66;97.31
7052;BME280;3567;52.444;13.556;2023-04-02T04:47:53;101265.91;;;2.69;97.45
7052;BME280;3567;52.444;13.556;2023-04-02T04:50:34;101266.72;;;2.69;97.23
7052;BME280;3567;52.444;13.556;2023-04-02T04:53:15;101275.66;;;2.68;97.29
7052;BME280;3567;52.444;13.556;2023-04-02T04:55:46;101281.78;;;2.69;97.88
7052;BME280;3567;52.444;13.556;2023-04-02T05:05:38;101290.88;;;2.74;96.97
7052;BME280;3567;52.444;13.556;2023-04-02T05:08:18;101308.09;;;2.78;97.32
7052;BME280;3567;52.444;13.556;2023-04-02T05:11:09;101314.84;;;2.81;96.45
7052;BME280;3567;52.444;13.556;2023-04-02T05:16:27;101319.00;;;2.83;96.70
7052;BME280;3567;52.444;13.556;2023-04-02T05:21:49;101317.84;;;2.86;95.94
7052;BME280;3567;52.444;13.556;2023-04-02T05:27:14;101328.75;;;2.91;96.42
7052;BME280;3567;52.444;13.556;2023-04-02T05:29:46;101341.81;;;2.93;96.96
7052;BME280;3567;52.444;13.556;2023-04-02T05:32:45;101341.00;;;2.92;96.74
7052;BME280;3567;52.444;13.556;2023-04-02T05:35:18;101347.97;;;2.93;97.10
7052;BME280;3567;52.444;13.556;2023-04-02T05:37:45;101352.91;;;2.96;97.38
7052;BME280;3567;52.444;13.556;2023-04-02T05:40:21;101354.41;;;2.99;97.56
7052;BME280;3567;52.444;13.556;2023-04-02T05:42:49;101362.50;;;2.97;98.15
7052;BME280;3567;52.444;13.556;2023-04-02T05:45:26;101359.84;;;2.97;97.00
7052;BME280;3567;52.444;13.556;2023-04-02T05:47:55;101367.31;;;3.02;96.52
7052;BME280;3567;52.444;13.556;2023-04-02T05:50:28;101371.13;;;3.07;97.20
7052;BME280;3567;52.444;13.556;2023-04-02T05:53:12;101380.09;;;3.14;96.88
7052;BME280;3567;52.444;13.556;2023-04-02T05:55:43;101384.03;;;3.19;96.88
7052;BME280;3567;52.444;13.556;2023-04-02T05:58:36;101384.06;;;3.27;96.93
7052;BME280;3567;52.444;13.556;2023-04-02T06:01:22;101391.00;;;3.28;96.42
7052;BME280;3567;52.444;13.556;2023-04-02T06:09:27;101404.41;;;3.34;95.79
7052;BME280;3567;52.444;13.556;2023-04-02T06:12:16;101409.56;;;3.36;93.90
7052;BME280;3567;52.444;13.556;2023-04-02T06:14:44;101402.25;;;3.38;93.70
7052;BME280;3567;52.444;13.556;2023-04-02T06:17:15;101408.38;;;3.38;90.17
7052;BME280;3567;52.444;13.556;2023-04-02T06:19:42;101420.47;;;3.41;91.03
7052;BME280;3567;52.444;13.556;2023-04-02T06:22:16;101420.13;;;3.44;90.79
7052;BME280;3567;52.444;13.556;2023-04-02T06:24:44;101422.47;;;3.47;90.13
7052;BME280;3567;52.444;13.556;2023-04-02T06:27:13;101425.75;;;3.49;89.20
7052;BME280;3567;52.444;13.556;2023-04-02T06:29:43;101425.75;;;3.49;88.65
7052;BME280;3567;52.444;13.556;2023-04-02T06:32:11;101438.69;;;3.52;88.69
7052;BME280;3567;52.444;13.556;2023-04-02T06:34:40;101440.66;;;3.50;88.34
7052;BME280;3567;52.444;13.556;2023-04-02T06:39:43;101456.56;;;3.58;88.08
7052;BME280;3567;52.444;13.556;2023-04-02T06:44:36;101450.28;;;3.59;88.00
7052;BME280;3567;52.444;13.556;2023-04-02T06:47:06;101468.16;;;3.65;87.85
7052;BME280;3567;52.444;13.556;2023-04-02T06:49:46;101462.53;;;3.68;87.76
7052;BME280;3567;52.444;13.556;2023-04-02T06:52:35;101465.84;;;3.71;87.82
7052;BME280;3567;52.444;13.556;2023-04-02T06:57:49;101478.94;;;3.80;87.39
7052;BME280;3567;52.444;13.556;2023-04-02T07:00:24;101481.56;;;3.80;86.34
7052;BME280;3567;52.444;13.556;2023-04-02T07:02:51;101487.84;;;3.87;88.01
7052;BME280;3567;52.444;13.556;2023-04-02T07:05:17;101499.81;;;4.00;87.55
7052;BME280;3567;52.444;13.556;2023-04-02T07:07:43;101494.66;;;4.06;86.89
7052;BME280;3567;52.444;13.556;2023-04-02T07:10:10;101497.44;;;4.05;86.44
7052;BME280;3567;52.444;13.556;2023-04-02T07:12:35;101496.81;;;4.03;85.97
7052;BME280;3567;52.444;13.556;2023-04-02T07:15:00;101508.91;;;4.05;87.82
7052;BME280;3567;52.444;13.556;2023-04-02T07:17:26;101507.56;;;4.09;85.09
7052;BME280;3567;52.444;13.556;2023-04-02T07:19:51;101507.91;;;4.06;87.22
7052;BME280;3567;52.444;13.556;2023-04-02T07:22:18;101513.88;;;4.08;84.54
7052;BME280;3567;52.444;13.556;2023-04-02T07:24:44;101514.53;;;4.02;85.03
7052;BME280;3567;52.444;13.556;2023-04-02T07:27:11;101519.84;;;4.02;83.91
7052;BME280;3567;52.444;13.556;2023-04-02T07:29:36;101512.22;;;4.07;83.70
7052;BME280;3567;52.444;13.556;2023-04-02T07:32:07;101513.88;;;4.08;84.49
7052;BME280;3567;52.444;13.556;2023-04-02T07:34:33;101518.16;;;4.17;84.96
7052;BME280;3567;52.444;13.556;2023-04-02T07:36:58;101521.31;;;4.29;85.29
7052;BME280;3567;52.444;13.556;2023-04-02T07:39:24;101513.81;;;4.41;83.98
7052;BME280;3567;52.444;13.556;2023-04-02T07:41:54;101531.00;;;4.69;84.05
7052;BME280;3567;52.444;13.556;2023-04-02T07:44:20;101519.38;;;5.18;81.91
7052;BME280;3567;52.444;13.556;2023-04-02T07:46:45;101530.56;;;5.59;80.23
7052;BME280;3567;52.444;13.556;2023-04-02T07:49:11;101533.06;;;5.61;78.50
7052;BME280;3567;52.444;13.556;2023-04-02T07:51:36;101535.84;;;5.67;76.91
7052;BME280;3567;52.444;13.556;2023-04-02T07:54:02;101537.09;;;5.48;77.23
7052;BME280;3567;52.444;13.556;2023-04-02T07:56:27;101538.41;;;5.52;76.69
7052;BME280;3567;52.444;13.556;2023-04-02T07:58:53;101539.94;;;5.47;73.96
7052;BME280;3567;52.444;13.556;2023-04-02T08:03:43;101547.69;;;5.34;74.65
7052;BME280;3567;52.444;13.556;2023-04-02T08:06:09;101562.31;;;5.30;75.99
7052;BME280;3567;52.444;13.556;2023-04-02T08:08:34;101558.75;;;5.37;75.45
7052;BME280;3567;52.444;13.556;2023-04-02T08:11:00;101567.44;;;5.31;76.52
7052;BME280;3567;52.444;13.556;2023-04-02T08:13:25;101567.94;;;5.26;77.21
7052;BME280;3567;52.444;13.556;2023-04-02T08:15:50;101577.75;;;5.26;76.06
7052;BME280;3567;52.444;13.556;2023-04-02T08:18:16;101578.09;;;5.23;76.63
7052;BME280;3567;52.444;13.556;2023-04-02T08:20:41;101583.56;;;5.30;77.99
7052;BME280;3567;52.444;13.556;2023-04-02T08:23:13;101583.22;;;5.33;78.19
7052;BME280;3567;52.444;13.556;2023-04-02T08:25:43;101584.50;;;5.37;77.48
7052;BME280;3567;52.444;13.556;2023-04-02T08:28:08;101587.97;;;5.37;78.08
7052;BME280;3567;52.444;13.556;2023-04-02T08:30:34;101595.81;;;5.39;79.20
7052;BME280;3567;52.444;13.556;2023-04-02T08:33:00;101598.91;;;5.42;78.97
7052;BME280;3567;52.444;13.556;2023-04-02T08:35:25;101594.81;;;5.40;76.50
7052;BME280;3567;52.444;13.556;2023-04-02T08:37:59;101602.78;;;5.32;77.49
7052;BME280;3567;52.444;13.556;2023-04-02T08:40:34;101598.09;;;5.42;76.54
7052;BME280;3567;52.444;13.556;2023-04-02T08:45:50;101615.38;;;5.38;78.27
7052;BME280;3567;52.444;13.556;2023-04-02T08:48:36;101609.72;;;5.41;76.58
7052;BME280;3567;52.444;13.556;2023-04-02T08:51:03;101625.38;;;5.36;77.46
7052;BME280;3567;52.444;13.556;2023-04-02T08:53:40;101626.50;;;5.41;77.64
7052;BME280;3567;52.444;13.556;2023-04-02T08:56:19;101639.59;;;5.43;78.67
7052;BME280;3567;52.444;13.556;2023-04-02T08:59:01;101635.16;;;5.43;76.52
7052;BME280;3567;52.444;13.556;2023-04-02T09:01:48;101642.00;;;5.30;78.40
7052;BME280;3567;52.444;13.556;2023-04-02T09:04:19;101640.03;;;5.15;78.10
7052;BME280;3567;52.444;13.556;2023-04-02T09:06:46;101648.84;;;5.16;77.95
7052;BME280;3567;52.444;13.556;2023-04-02T09:09:13;101655.50;;;5.12;77.93
7052;BME280;3567;52.444;13.556;2023-04-02T09:12:10;101659.19;;;5.03;78.55
7052;BME280;3567;52.444;13.556;2023-04-02T09:14:45;101665.97;;;5.05;78.83
7052;BME280;3567;52.444;13.556;2023-04-02T09:19:41;101669.94;;;5.09;77.61
7052;BME280;3567;52.444;13.556;2023-04-02T09:22:25;101674.94;;;5.12;77.84
7052;BME280;3567;52.444;13.556;2023-04-02T09:24:56;101674.25;;;5.18;74.21
7052;BME280;3567;52.444;13.556;2023-04-02T09:27:27;101662.78;;;5.10;73.64
7052;BME280;3567;52.444;13.556;2023-04-02T09:30:13;101679.22;;;5.05;73.44
7052;BME280;3567;52.444;13.556;2023-04-02T09:32:52;101678.59;;;5.03;73.68
7052;BME280;3567;52.444;13.556;2023-04-02T09:35:20;101690.53;;;4.99;74.78
7052;BME280;3567;52.444;13.556;2023-04-02T09:37:47;101694.03;;;4.99;72.89
7052;BME280;3567;52.444;13.556;2023-04-02T09:40:46;101701.84;;;4.85;73.53
7052;BME280;3567;52.444;13.556;2023-04-02T09:43:21;101708.09;;;5.24;75.32
7052;BME280;3567;52.444;13.556;2023-04-02T09:51:03;101696.66;;;6.94;72.49
7052;BME280;3567;52.444;13.556;2023-04-02T09:53:36;101704.84;;;7.22;69.39
7052;BME280;3567;52.444;13.556;2023-04-02T09:56:16;101715.72;;;7.21;68.82
7052;BME280;3567;52.444;13.556;2023-04-02T09:58:43;101710.69;;;7.03;66.91
7052;BME280;3567;52.444;13.556;2023-04-02T10:01:27;101716.69;;;6.67;67.76
7052;BME280;3567;52.444;13.556;2023-04-02T10:03:53;101719.13;;;6.54;68.99
7052;BME280;3567;52.444;13.556;2023-04-02T10:06:19;101726.81;;;6.49;68.73
7052;BME280;3567;52.444;13.556;2023-04-02T10:08:45;101721.47;;;6.49;66.60
7052;BME280;3567;52.444;13.556;2023-04-02T10:11:13;101729.53;;;6.41;68.79
7052;BME280;3567;52.444;13.556;2023-04-02T10:13:52;101735.88;;;6.40;66.91
7052;BME280;3567;52.444;13.556;2023-04-02T10:16:25;101727.22;;;6.38;67.96
7052;BME280;3567;52.444;13.556;2023-04-02T10:18:58;101726.22;;;6.39;67.87
7052;BME280;3567;52.444;13.556;2023-04-02T10:21:28;101743.16;;;6.46;68.11
7052;BME280;3567;52.444;13.556;2023-04-02T10:23:56;101734.25;;;6.53;65.39
7052;BME280;3567;52.444;13.556;2023-04-02T10:31:58;101739.84;;;6.81;66.75
7052;BME280;3567;52.444;13.556;2023-04-02T10:34:37;101741.88;;;6.79;66.85
7052;BME280;3567;52.444;13.556;2023-04-02T10:40:36;101755.84;;;6.81;66.32
7052;BME280;3567;52.444;13.556;2023-04-02T10:43:29;101753.97;;;6.67;66.36
7052;BME280;3567;52.444;13.556;2023-04-02T10:46:04;101756.22;;;6.55;67.78
7052;BME280;3567;52.444;13.556;2023-04-02T10:54:35;101773.66;;;6.58;68.89
7052;BME280;3567;52.444;13.556;2023-04-02T10:57:30;101787.03;;;6.50;68.19
7052;BME280;3567;52.444;13.556;2023-04-02T11:05:24;101790.44;;;6.36;68.49
7052;BME280;3567;52.444;13.556;2023-04-02T11:08:01;101807.94;;;6.30;68.70
7052;BME280;3567;52.444;13.556;2023-04-02T11:10:32;101803.44;;;6.30;69.70
7052;BME280;3567;52.444;13.556;2023-04-02T11:16:05;101810.59;;;6.30;69.56
7052;BME280;3567;52.444;13.556;2023-04-02T11:18:32;101808.31;;;6.19;69.28
7052;BME280;3567;52.444;13.556;2023-04-02T11:21:36;101831.78;;;6.15;70.00
7052;BME280;3567;52.444;13.556;2023-04-02T11:23:58;101830.94;;;6.15;69.46
7052;BME280;3567;52.444;13.556;2023-04-02T11:26:33;101827.47;;;6.14;69.64
7052;BME280;3567;52.444;13.556;2023-04-02T11:29:41;101836.09;;;6.16;69.49
7052;BME280;3567;52.444;13.556;2023-04-02T11:37:43;101844.75;;;6.18;69.60
7052;BME280;3567;52.444;13.556;2023-04-02T11:42:36;101846.03;;;6.22;69.40
7052;BME280;3567;52.444;13.556;2023-04-02T11:50:35;101851.66;;;6.36;69.65
7052;BME280;3567;52.444;13.556;2023-04-02T11:55:42;101857.59;;;6.46;70.55
7052;BME280;3567;52.444;13.556;2023-04-02T12:09:26;101864.28;;;6.96;71.33
7052;BME280;3567;52.444;13.556;2023-04-02T12:11:54;101872.69;;;7.07;69.26
7052;BME280;3567;52.444;13.556;2023-04-02T12:17:12;101864.97;;;7.73;68.58
7052;BME280;3567;52.444;13.556;2023-04-02T12:19:39;101868.78;;;7.94;66.90
7052;BME280;3567;52.444;13.556;2023-04-02T12:22:15;101861.41;;;7.96;66.80
7052;BME280;3567;52.444;13.556;2023-04-02T12:24:46;101860.47;;;8.03;66.97
7052;BME280;3567;52.444;13.556;2023-04-02T12:27:25;101862.97;;;8.05;64.08
7052;BME280;3567;52.444;13.556;2023-04-02T12:30:09;101869.13;;;7.91;65.65
7052;BME280;3567;52.444;13.556;2023-04-02T12:32:35;101869.28;;;7.74;65.62
7052;BME280;3567;52.444;13.556;2023-04-02T12:35:02;101875.22;;;7.61;66.59
7052;BME280;3567;52.444;13.556;2023-04-02T12:37:29;101877.66;;;7.56;67.06
7052;BME280;3567;52.444;13.556;2023-04-02T12:39:58;101883.81;;;7.57;66.36
7052;BME280;3567;52.444;13.556;2023-04-02T12:42:26;101880.91;;;7.44;65.96
7052;BME280;3567;52.444;13.556;2023-04-02T12:44:52;101883.06;;;7.63;63.75
7052;BME280;3567;52.444;13.556;2023-04-02T12:47:17;101878.53;;;8.16;61.52
7052;BME280;3567;52.444;13.556;2023-04-02T12:49:43;101864.25;;;8.53;58.78
7052;BME280;3567;52.444;13.556;2023-04-02T12:52:12;101866.25;;;8.87;59.66
7052;BME280;3567;52.444;13.556;2023-04-02T12:54:51;101865.38;;;9.02;58.23
7052;BME280;3567;52.444;13.556;2023-04-02T12:59:54;101871.22;;;8.54;60.00
7052;BME280;3567;52.444;13.556;2023-04-02T13:04:53;101878.59;;;8.88;57.04
7052;BME280;3567;52.444;13.556;2023-04-02T13:07:21;101855.97;;;9.06;55.60
7052;BME280;3567;52.444;13.556;2023-04-02T13:09:49;101860.66;;;9.04;55.26
7052;BME280;3567;52.444;13.556;2023-04-02T13:12:36;101860.25;;;9.50;53.93
7052;BME280;3567;52.444;13.556;2023-04-02T13:15:14;101857.09;;;9.67;54.94
7052;BME280;3567;52.444;13.556;2023-04-02T13:17:46;101854.22;;;9.69;52.39
7052;BME280;3567;52.444;13.556;2023-04-02T13:20:30;101856.38;;;9.31;53.72
7052;BME280;3567;52.444;13.556;2023-04-02T13:22:57;101873.81;;;9.05;54.63
7052;BME280;3567;52.444;13.556;2023-04-02T13:25:31;101878.28;;;8.62;55.61
7052;BME280;3567;52.444;13.556;2023-04-02T13:27:58;101877.13;;;8.35;56.81
7052;BME280;3567;52.444;13.556;2023-04-02T13:30:26;101887.28;;;8.39;56.94
7052;BME280;3567;52.444;13.556;2023-04-02T13:32:51;101883.16;;;8.73;57.52
7052;BME280;3567;52.444;13.556;2023-04-02T13:35:17;101866.97;;;9.39;53.69
7052;BME280;3567;52.444;13.556;2023-04-02T13:37:42;101865.38;;;10.07;52.70
7052;BME280;3567;52.444;13.556;2023-04-02T13:40:16;101863.38;;;10.22;51.60
7052;BME280;3567;52.444;13.556;2023-04-02T13:42:43;101854.28;;;10.52;49.30
7052;BME280;3567;52.444;13.556;2023-04-02T13:45:31;101865.50;;;10.27;50.12
7052;BME280;3567;52.444;13.556;2023-04-02T13:47:57;101873.84;;;9.76;51.84
7052;BME280;3567;52.444;13.556;2023-04-02T13:50:26;101879.03;;;9.56;52.81
7052;BME280;3567;52.444;13.556;2023-04-02T13:52:52;101877.75;;;10.08;54.09
7052;BME280;3567;52.444;13.556;2023-04-02T13:55:20;101864.59;;;10.55;51.46
7052;BME280;3567;52.444;13.556;2023-04-02T13:57:47;101859.44;;;10.60;49.02
7052;BME280;3567;52.444;13.556;2023-04-02T14:00:14;101872.84;;;10.18;49.65
7052;BME280;3567;52.444;13.556;2023-04-02T14:02:44;101878.41;;;9.54;51.74
7052;BME280;3567;52.444;13.556;2023-04-02T14:08:04;101888.88;;;8.70;54.34
7052;BME280;3567;52.444;13.556;2023-04-02T14:14:15;101903.53;;;8.74;54.54
7052;BME280;3567;52.444;13.556;2023-04-02T14:16:38;101903.25;;;8.69;54.49
7052;BME280;3567;52.444;13.556;2023-04-02T14:27:44;101912.75;;;8.57;54.13
7052;BME280;3567;52.444;13.556;2023-04-02T14:38:10;101936.84;;;8.19;58.48
7052;BME280;3567;52.444;13.556;2023-04-02T14:40:48;101939.19;;;8.52;57.38
7052;BME280;3567;52.444;13.556;2023-04-02T14:43:19;101941.34;;;8.42;57.55
7052;BME280;3567;52.444;13.556;2023-04-02T14:46:00;101932.47;;;8.26;57.39
7052;BME280;3567;52.444;13.556;2023-04-02T14:51:37;101938.84;;;7.87;58.26
7052;BME280;3567;52.444;13.556;2023-04-02T14:54:11;101944.84;;;7.90;59.49
7052;BME280;3567;52.444;13.556;2023-04-02T14:56:52;101953.44;;;8.29;60.03
7052;BME280;3567;52.444;13.556;2023-04-02T15:02:50;101945.53;;;8.21;55.66
7052;BME280;3567;52.444;13.556;2023-04-02T15:08:11;101963.66;;;7.73;58.80
7052;BME280;3567;52.444;13.556;2023-04-02T15:11:07;101959.81;;;7.53;59.10
7052;BME280;3567;52.444;13.556;2023-04-02T15:13:36;101979.63;;;7.35;60.85
7052;BME280;3567;52.444;13.556;2023-04-02T15:16:20;101979.78;;;7.57;60.08
7052;BME280;3567;52.444;13.556;2023-04-02T15:19:14;101981.81;;;7.93;59.04
7052;BME280;3567;52.444;13.556;2023-04-02T15:21:52;101983.22;;;7.88;59.14
7052;BME280;3567;52.444;13.556;2023-04-02T15:43:17;102015.13;;;7.28;60.70
7052;BME280;3567;52.444;13.556;2023-04-02T15:53:55;102029.88;;;7.39;59.31
7052;BME280;3567;52.444;13.556;2023-04-02T15:56:39;102032.41;;;7.09;60.19
7052;BME280;3567;52.444;13.556;2023-04-02T16:02:13;102042.19;;;6.69;62.16
7052;BME280;3567;52.444;13.556;2023-04-02T16:07:34;102053.41;;;7.04;64.05
7052;BME280;3567;52.444;13.556;2023-04-02T16:10:14;102055.41;;;7.64;62.20
7052;BME280;3567;52.444;13.556;2023-04-02T16:12:45;102054.28;;;8.04;61.25
7052;BME280;3567;52.444;13.556;2023-04-02T16:17:50;102051.91;;;7.86;57.51
7052;BME280;3567;52.444;13.556;2023-04-02T16:20:25;102068.19;;;7.46;57.92
7052;BME280;3567;52.444;13.556;2023-04-02T16:23:13;102063.63;;;7.23;60.00
7052;BME280;3567;52.444;13.556;2023-04-02T16:28:28;102065.53;;;7.06;60.25
7052;BME280;3567;52.444;13.556;2023-04-02T16:33:47;102089.31;;;7.08;60.17
7052;BME280;3567;52.444;13.556;2023-04-02T16:36:44;102089.69;;;7.05;61.37
7052;BME280;3567;52.444;13.556;2023-04-02T16:44:36;102112.94;;;6.47;62.71
7052;BME280;3567;52.444;13.556;2023-04-02T16:47:46;102116.94;;;6.35;63.87
7052;BME280;3567;52.444;13.556;2023-04-02T16:55:47;102135.72;;;6.09;64.14
7052;BME280;3567;52.444;13.556;2023-04-02T17:00:59;102142.47;;;5.87;65.07
7052;BME280;3567;52.444;13.556;2023-04-02T17:06:14;102153.88;;;5.63;66.88
7052;BME280;3567;52.444;13.556;2023-04-02T17:08:46;102160.16;;;5.54;66.92
7052;BME280;3567;52.444;13.556;2023-04-02T17:11:23;102163.44;;;5.48;66.95
7052;BME280;3567;52.444;13.556;2023-04-02T17:13:56;102171.56;;;5.38;67.57
7052;BME280;3567;52.444;13.556;2023-04-02T17:16:41;102164.06;;;5.34;68.11
7052;BME280;3567;52.444;13.556;2023-04-02T17:19:09;102166.38;;;5.29;68.45
7052;BME280;3567;52.444;13.556;2023-04-02T17:21:36;102176.94;;;5.20;68.89
7052;BME280;3567;52.444;13.556;2023-04-02T17:26:39;102184.34;;;5.09;69.54
7052;BME280;3567;52.444;13.556;2023-04-02T17:29:11;102179.50;;;5.04;70.35
7052;BME280;3567;52.444;13.556;2023-04-02T17:31:39;102180.78;;;5.00;71.23
7052;BME280;3567;52.444;13.556;2023-04-02T17:34:16;102191.38;;;4.92;71.71